Latest Weather Observations for Broome

IDW60801

Issued at 9:13 pm WST Monday 18 June 2018 (issued every 10 minutes, with the page automatically refreshed every 10 minutes)

About weather observations | Map of weather stations | Latest weather observations for WA | Other Formats
Station Details ID: 003003 Name: BROOME AIRPORT Lat: -17.95 Lon: 122.24 Height: 7.42 m
Data from the previous 72 hours. | See also: Recent months at Broome
Date/Time
WST
Temp
°C
App
Temp
°C
Dew
Point
°C
Rel
Hum
%
Delta-T
°C
Wind Press
QNH
hPa
Press
MSL
hPa
Rain since
9am
mm
Dir  Spd
km/h
Gust
km/h
Spd
kts
Gust
kts
18/09:00pm 18.1 18.0 13.9 76 2.4 N 7 11 4 6 1017.0 1017.0 0.0
18/08:30pm 18.2 18.5 13.4 73 2.7 NE 4 7 2 4 1016.9 1016.9 0.0
18/08:00pm 18.3 19.1 13.7 74 2.6 NE 2 7 1 4 1016.6 1016.6 0.0
18/07:30pm 19.5 20.3 12.5 64 3.9 CALM 0 0 0 0 1016.1 1016.1 0.0
18/07:00pm 20.2 21.3 13.4 65 3.9 CALM 0 0 0 0 1015.7 1015.7 0.0
18/06:30pm 22.0 23.0 13.3 57 5.0 CALM 0 0 0 0 1015.2 1015.2 0.0
18/06:00pm 24.0 24.9 12.9 50 6.4 CALM 0 4 0 2 1014.9 1014.9 0.0
18/05:30pm 25.8 25.1 12.0 42 7.9 S 7 9 4 5 1014.6 1014.6 0.0
18/05:00pm 27.4 26.4 10.3 34 9.6 SE 6 9 3 5 1014.2 1014.1 0.0
18/04:30pm 28.8 26.6 8.0 27 11.3 NE 9 11 5 6 1013.7 1013.6 0.0
18/04:00pm 29.5 26.6 6.3 23 12.3 NE 11 15 6 8 1013.4 1013.3 0.0
18/03:30pm 29.7 26.7 6.1 22 12.5 ENE 11 15 6 8 1013.1 1013.0 0.0
18/03:00pm 30.2 26.7 5.4 21 13.0 NNE 13 19 7 10 1013.0 1012.9 0.0
18/02:30pm 29.9 26.4 5.5 21 12.8 E 13 20 7 11 1013.2 1013.1 0.0
18/02:00pm 29.8 25.7 4.6 20 13.0 ENE 15 20 8 11 1013.2 1013.1 0.0
18/01:30pm 29.6 25.0 3.5 19 13.2 ENE 17 26 9 14 1013.5 1013.4 0.0
18/01:00pm 29.6 25.0 3.5 19 13.2 ENE 17 22 9 12 1013.8 1013.7 0.0
18/12:30pm 28.7 24.0 3.0 19 12.8 E 17 26 9 14 1014.3 1014.2 0.0
18/12:00pm 28.1 22.8 2.9 19 12.5 E 20 28 11 15 1014.9 1014.9 0.0
18/11:30am 27.5 22.3 2.7 20 12.2 E 19 26 10 14 1015.7 1015.7 0.0
18/11:00am 26.9 21.4 1.8 19 12.1 E 20 30 11 16 1016.2 1016.2 0.0
18/10:30am 26.3 21.5 2.4 21 11.6 E 17 28 9 15 1016.6 1016.6 0.0
18/10:00am 25.0 19.1 1.5 21 11.1 ENE 22 33 12 18 1016.9 1016.9 0.0
18/09:30am 24.1 18.6 1.9 23 10.5 E 20 30 11 16 1017.6 1017.6 0.0
18/09:00am 22.4 16.7 0.7 23 9.9 E 20 33 11 18 1017.8 1017.8 0.0
18/08:30am 21.0 15.0 0.9 26 9.1 E 22 33 12 18 1017.9 1017.9 0.0
18/08:00am 20.2 14.5 0.4 26 8.8 E 20 35 11 19 1017.9 1017.9 0.0
18/07:30am 18.9 14.3 1.3 30 7.9 E 15 20 8 11 1017.8 1017.8 0.0
18/07:00am 17.0 12.8 1.7 35 6.8 E 13 17 7 9 1017.5 1017.5 0.0
18/06:30am 15.7 12.4 2.2 40 6.0 E 9 13 5 7 1017.2 1017.2 0.0
18/06:00am 16.9 11.8 0.9 34 7.0 E 17 24 9 13 1016.6 1016.6 0.0
18/05:30am 16.6 11.6 1.1 35 6.8 E 17 20 9 11 1016.2 1016.2 0.0
18/05:00am 16.2 12.4 1.7 37 6.4 E 11 15 6 8 1016.3 1016.3 0.0
18/04:30am 16.8 12.5 1.1 34 6.9 E 13 19 7 10 1016.1 1016.1 0.0
18/04:00am 15.4 11.7 2.4 41 5.8 E 11 15 6 8 1016.1 1016.1 0.0
18/03:30am 15.1 11.9 2.8 43 5.5 ESE 9 11 5 6 1016.0 1016.0 0.0
18/03:00am 15.0 12.0 3.9 47 5.1 E 9 15 5 8 1016.1 1016.1 0.0
18/02:30am 15.0 11.3 4.4 49 4.9 E 13 13 7 7 1016.4 1016.4 0.0
18/02:00am 16.0 12.4 2.7 41 6.0 ESE 11 13 6 7 1016.9 1016.9 0.0
18/01:30am 16.3 12.8 3.4 42 5.9 E 11 15 6 8 1017.1 1017.1 0.0
18/01:00am 17.0 14.4 5.9 48 5.4 E 9 13 5 7 1017.2 1017.2 0.0
18/12:30am 19.7 16.1 5.1 38 7.1 ESE 13 19 7 10 1017.2 1017.2 0.0
18/12:00am 20.3 15.9 2.7 31 8.2 ESE 15 20 8 11 1017.3 1017.3 0.0
 
Date/Time
WST
Temp
°C
App
Temp
°C
Dew
Point
°C
Rel
Hum
%
Delta-T
°C
Wind Press
QNH
hPa
Press
MSL
hPa
Rain since
9am
mm
Dir  Spd
km/h
Gust
km/h
Spd
kts
Gust
kts
17/11:30pm 20.8 16.4 4.5 34 7.9 ESE 17 24 9 13 1017.3 1017.3 0.0
17/11:00pm 20.5 16.3 5.5 37 7.4 ESE 17 24 9 13 1017.4 1017.4 0.0
17/10:30pm 21.3 16.4 5.0 34 8.0 ESE 20 26 11 14 1017.5 1017.5 0.0
17/10:00pm 21.5 17.0 5.9 36 7.8 SE 19 26 10 14 1017.6 1017.6 0.0
17/09:30pm 21.1 17.9 7.0 40 7.2 ESE 13 19 7 10 1017.7 1017.7 0.0
17/09:00pm 22.0 19.0 7.5 39 7.5 SE 13 19 7 10 1017.5 1017.5 0.0
17/08:30pm 22.0 19.1 8.3 41 7.2 ESE 13 15 7 8 1017.5 1017.5 0.0
17/08:00pm 22.8 20.2 7.6 37 7.9 SE 11 15 6 8 1017.4 1017.4 0.0
17/07:30pm 22.3 20.3 8.5 41 7.3 ESE 9 13 5 7 1017.1 1017.1 0.0
17/07:00pm 23.4 21.4 8.6 38 7.9 ESE 9 13 5 7 1016.9 1016.9 0.0
17/06:30pm 24.4 21.7 7.2 33 9.0 ESE 11 13 6 7 1016.6 1016.6 0.0
17/06:00pm 24.7 22.2 8.2 35 8.8 ESE 11 13 6 7 1016.5 1016.5 0.0
17/05:30pm 25.5 23.7 10.9 40 8.2 ESE 11 13 6 7 1016.1 1016.1 0.0
17/05:00pm 27.3 25.8 12.0 38 8.8 ESE 11 15 6 8 1015.6 1015.6 0.0
17/04:30pm 29.0 26.4 9.2 29 11.0 ESE 13 15 7 8 1015.4 1015.4 0.0
17/04:00pm 30.0 27.0 7.8 25 12.1 ESE 13 19 7 10 1015.3 1015.3 0.0
17/03:30pm 30.8 26.7 6.2 21 13.1 E 17 26 9 14 1015.2 1015.2 0.0
17/03:00pm 31.0 26.9 6.3 21 13.2 E 17 20 9 11 1015.2 1015.2 0.0
17/02:30pm 31.2 27.1 6.4 21 13.3 ESE 17 24 9 13 1015.4 1015.4 0.0
17/02:00pm 31.3 26.8 6.2 20 13.4 E 19 24 10 13 1015.5 1015.5 0.0
17/01:30pm 31.4 27.3 6.4 21 13.4 ENE 17 22 9 12 1015.7 1015.7 0.0
17/01:00pm 31.6 27.0 6.5 20 13.5 ENE 20 28 11 15 1016.0 1016.0 0.0
17/12:30pm 30.7 26.1 5.7 20 13.2 E 19 26 10 14 1016.5 1016.5 0.0
17/12:00pm 30.3 25.8 6.2 22 12.8 E 19 26 10 14 1017.0 1017.0 0.0
17/11:30am 29.9 25.1 5.4 21 12.8 ENE 20 30 11 16 1017.4 1017.4 0.0
17/11:00am 28.9 23.1 4.4 21 12.5 E 24 33 13 18 1017.8 1017.8 0.0
17/10:30am 27.7 22.1 3.4 21 12.1 E 22 32 12 17 1018.3 1018.3 0.0
17/10:00am 27.2 21.7 3.8 22 11.7 E 22 32 12 17 1018.5 1018.5 0.0
17/09:30am 25.9 19.6 1.5 20 11.6 E 24 35 13 19 1018.7 1018.7 0.0
17/09:00am 24.8 18.1 1.4 21 11.0 E 26 33 14 18 1018.9 1018.9 0.0
17/08:30am 23.5 17.0 0.2 21 10.6 E 24 37 13 20 1018.9 1018.9 0.0
17/08:00am 22.2 15.6 -0.5 22 10.1 E 24 32 13 17 1018.7 1018.7 0.0
17/07:30am 21.5 15.2 -1.2 22 9.9 E 22 32 12 17 1018.8 1018.8 0.0
17/07:00am 20.8 14.5 -0.7 23 9.4 ESE 22 32 12 17 1018.6 1018.6 0.0
17/06:30am 20.3 14.6 -0.5 24 9.1 ESE 19 28 10 15 1018.2 1018.2 0.0
17/06:00am 20.3 14.5 -0.1 25 9.0 ESE 20 28 11 15 1017.8 1017.8 0.0
17/05:30am 20.0 15.0 1.2 28 8.5 ESE 17 22 9 12 1017.5 1017.5 0.0
17/05:00am 19.0 15.8 5.2 40 6.7 SE 11 13 6 7 1017.4 1017.4 0.0
17/04:30am 18.2 15.9 7.5 49 5.4 ESE 9 11 5 6 1017.2 1017.2 0.0
17/04:00am 18.7 16.3 7.2 47 5.8 ESE 9 13 5 7 1017.0 1017.0 0.0
17/03:30am 19.8 16.4 6.1 40 6.8 ESE 13 17 7 9 1017.0 1017.0 0.0
17/03:00am 20.7 17.2 5.5 37 7.5 ESE 13 17 7 9 1016.8 1016.8 0.0
17/02:30am 20.7 17.9 8.5 45 6.4 ESE 13 19 7 10 1017.1 1017.1 0.0
17/02:00am 21.7 19.8 11.9 53 5.5 ESE 13 15 7 8 1017.1 1017.1 0.0
17/01:30am 22.7 21.3 10.9 47 6.5 SE 9 13 5 7 1017.3 1017.3 0.0
17/01:00am 23.3 21.6 11.1 46 6.8 SSE 11 15 6 8 1017.5 1017.5 0.0
17/12:30am 23.0 23.2 14.7 59 4.9 SE 7 9 4 5 1017.8 1017.8 0.0
17/12:00am 23.5 23.7 14.7 57 5.2 SE 7 11 4 6 1017.9 1017.9 0.0
 
Date/Time
WST
Temp
°C
App
Temp
°C
Dew
Point
°C
Rel
Hum
%
Delta-T
°C
Wind Press
QNH
hPa
Press
MSL
hPa
Rain since
9am
mm
Dir  Spd
km/h
Gust
km/h
Spd
kts
Gust
kts
16/11:30pm 24.4 24.8 16.2 60 5.0 SSE 9 15 5 8 1018.1 1018.1 0.0
16/11:00pm 23.4 25.5 20.1 82 2.1 SSE 9 13 5 7 1018.1 1018.1 0.0
16/10:30pm 23.1 25.4 19.5 80 2.3 SSE 6 9 3 5 1018.2 1018.2 0.0
16/10:00pm 22.1 25.2 18.6 80 2.2 CALM 0 0 0 0 1018.2 1018.2 0.0
16/09:30pm 22.0 24.2 18.3 79 2.3 SE 4 9 2 5 1018.1 1018.1 0.0
16/09:00pm 23.1 26.0 18.3 74 3.0 CALM 0 0 0 0 1018.0 1018.0 0.0
16/08:30pm 23.2 26.2 18.4 74 3.0 CALM 0 0 0 0 1018.0 1018.0 0.0
16/08:00pm 24.1 27.2 18.7 72 3.4 CALM 0 0 0 0 1017.8 1017.8 0.0
16/07:30pm 25.0 26.7 18.5 67 4.1 NNW 7 13 4 7 1017.5 1017.5 0.0
16/07:00pm 25.8 28.3 19.1 66 4.3 W 4 9 2 5 1017.1 1017.1 0.0
16/06:30pm 25.4 26.8 18.6 66 4.3 WNW 9 13 5 7 1016.8 1016.8 0.0
16/06:00pm 25.4 26.0 17.7 62 4.8 WNW 11 13 6 7 1016.4 1016.4 0.0
16/05:30pm 26.4 26.7 16.9 56 5.9 WNW 11 13 6 7 1016.1 1016.1 0.0
16/05:00pm 28.0 27.2 15.2 45 7.8 NW 13 17 7 9 1015.7 1015.7 0.0
16/04:30pm 28.7 27.3 14.4 41 8.6 NW 15 20 8 11 1015.5 1015.5 0.0
16/04:00pm 31.6 30.8 15.2 37 10.1 NE 13 17 7 9 1015.1 1015.1 0.0
16/03:30pm 32.1 30.8 14.9 35 10.6 ENE 15 20 8 11 1014.8 1014.8 0.0
16/03:00pm 32.5 30.4 14.8 34 10.9 NE 19 22 10 12 1014.8 1014.8 0.0
16/02:30pm 32.7 31.0 14.6 33 11.1 ENE 17 26 9 14 1014.9 1014.9 0.0
16/02:00pm 32.4 30.1 14.0 32 11.2 NE 19 28 10 15 1015.0 1015.0 0.0
16/01:30pm 32.6 29.7 14.0 32 11.3 ENE 22 33 12 18 1015.1 1015.1 0.0
16/01:00pm 31.5 28.9 13.8 34 10.7 ENE 20 32 11 17 1015.4 1015.4 0.0
16/12:30pm 30.9 27.3 13.1 33 10.6 E 24 35 13 19 1015.8 1015.8 0.0
16/12:00pm 31.0 27.0 13.0 33 10.7 ENE 26 43 14 23 1016.3 1016.3 0.0
16/11:30am 30.6 25.6 12.2 32 10.8 ENE 30 41 16 22 1016.5 1016.5 0.0
16/11:00am 29.7 25.2 11.3 32 10.6 E 26 37 14 20 1016.9 1016.9 0.0
16/10:30am 28.9 24.2 10.5 31 10.4 E 26 33 14 18 1017.3 1017.3 0.0
16/10:00am 28.1 22.7 9.5 31 10.3 E 28 39 15 21 1017.6 1017.6 0.0
16/09:30am 26.8 22.2 9.8 34 9.4 E 24 39 13 21 1017.8 1017.8 0.0
16/09:00am 26.4 21.9 8.7 32 9.6 E 22 37 12 20 1017.9 1017.9 0.0
16/08:30am 25.8 21.5 8.0 32 9.5 ESE 20 35 11 19 1017.9 1017.9 0.0
16/08:00am 23.0 20.2 8.5 39 7.7 ESE 13 20 7 11 1017.9 1017.9 0.0
16/07:30am 20.7 18.8 9.2 47 6.1 ESE 9 13 5 7 1017.6 1017.6 0.0
16/07:00am 20.1 18.3 9.6 51 5.6 ESE 9 11 5 6 1017.4 1017.4 0.0
16/06:30am 19.6 17.4 9.4 51 5.4 SE 11 13 6 7 1017.0 1017.0 0.0
16/06:00am 20.1 17.6 8.1 46 6.2 ESE 11 13 6 7 1016.7 1016.7 0.0
16/05:30am 20.6 16.8 7.6 43 6.7 ESE 17 24 9 13 1016.3 1016.3 0.0
16/05:00am 20.2 17.1 9.0 48 5.9 SE 15 20 8 11 1016.2 1016.2 0.0
16/04:30am 20.3 17.6 10.5 53 5.3 SE 15 20 8 11 1016.2 1016.2 0.0
16/04:00am 20.4 17.4 9.3 49 5.9 ESE 15 20 8 11 1016.1 1016.1 0.0
16/03:30am 20.3 17.9 10.1 52 5.5 ESE 13 17 7 9 1016.2 1016.2 0.0
16/03:00am 19.6 18.0 11.4 59 4.5 ESE 11 15 6 8 1016.1 1016.1 0.0
16/02:30am 17.7 15.9 11.0 65 3.6 ESE 11 13 6 7 1016.1 1016.1 0.0
16/02:00am 17.7 16.8 12.7 72 2.8 E 9 11 5 6 1016.2 1016.2 0.0
16/01:30am 18.3 17.1 11.5 64 3.7 ESE 9 11 5 6 1016.3 1016.3 0.0
16/01:00am 18.9 18.2 13.2 69 3.2 ESE 9 11 5 6 1016.6 1016.6 0.0
16/12:30am 18.7 18.7 14.2 75 2.6 E 7 9 4 5 1016.8 1016.8 0.0
16/12:00am 20.1 20.5 15.2 73 2.9 ESE 7 9 4 5 1016.7 1016.7 0.0
 
Date/Time
WST
Temp
°C
App
Temp
°C
Dew
Point
°C
Rel
Hum
%
Delta-T
°C
Wind Press
QNH
hPa
Press
MSL
hPa
Rain since
9am
mm
Dir  Spd
km/h
Gust
km/h
Spd
kts
Gust
kts
15/11:30pm 22.3 21.7 14.7 62 4.5 SE 11 20 6 11 1016.9 1016.9 0.0
15/11:00pm 22.4 22.0 14.0 59 4.9 SE 9 15 5 8 1016.9 1016.9 0.0
15/10:30pm 23.6 21.9 12.6 50 6.3 SSE 13 17 7 9 1016.9 1016.9 0.0
15/10:00pm 24.0 22.3 12.5 48 6.6 SSE 13 24 7 13 1016.9 1016.9 0.0
15/09:30pm 24.1 22.8 13.6 52 6.1 SSE 13 17 7 9 1016.8 1016.8 0.0

Other Formats:

Comma delimited format used in spreadsheet applications
http://www.bom.gov.au/fwo/IDW60801/IDW60801.94203.axf

JavaScript Object Notation format (JSON) in row-major order
http://www.bom.gov.au/fwo/IDW60801/IDW60801.94203.json